sensor_id;sensor_type;location;lat;lon;timestamp;temperature;humidity
31735;DHT22;18313;48.518;9.124;2023-05-10T00:00:42;14.20;99.90
31735;DHT22;18313;48.518;9.124;2023-05-10T00:03:09;14.10;99.90
31735;DHT22;18313;48.518;9.124;2023-05-10T00:05:37;14.10;99.90
31735;DHT22;18313;48.518;9.124;2023-05-10T00:08:04;14.00;99.90
31735;DHT22;18313;48.518;9.124;2023-05-10T00:10:31;14.00;99.90
31735;DHT22;18313;48.518;9.124;2023-05-10T00:12:58;14.00;99.90
31735;DHT22;18313;48.518;9.124;2023-05-10T00:15:26;13.90;99.90
31735;DHT22;18313;48.518;9.124;2023-05-10T00:17:53;13.80;99.90
31735;DHT22;18313;48.518;9.124;2023-05-10T00:20:20;13.80;99.90
31735;DHT22;18313;48.518;9.124;2023-05-10T00:22:47;13.80;99.90
31735;DHT22;18313;48.518;9.124;2023-05-10T00:25:14;13.80;99.90
31735;DHT22;18313;48.518;9.124;2023-05-10T00:27:41;13.80;99.90
31735;DHT22;18313;48.518;9.124;2023-05-10T00:30:08;13.90;99.90
31735;DHT22;18313;48.518;9.124;2023-05-10T00:32:35;14.00;99.90
31735;DHT22;18313;48.518;9.124;2023-05-10T00:35:03;14.00;99.90
31735;DHT22;18313;48.518;9.124;2023-05-10T00:37:30;14.10;99.90
31735;DHT22;18313;48.518;9.124;2023-05-10T00:39:57;14.10;99.90
31735;DHT22;18313;48.518;9.124;2023-05-10T00:42:24;14.10;99.90
31735;DHT22;18313;48.518;9.124;2023-05-10T00:44:51;14.00;99.90
31735;DHT22;18313;48.518;9.124;2023-05-10T00:47:18;13.90;99.90
31735;DHT22;18313;48.518;9.124;2023-05-10T00:49:45;13.90;99.90
31735;DHT22;18313;48.518;9.124;2023-05-10T00:52:13;13.80;99.90
31735;DHT22;18313;48.518;9.124;2023-05-10T00:54:40;13.80;99.90
31735;DHT22;18313;48.518;9.124;2023-05-10T00:57:07;13.70;99.90
31735;DHT22;18313;48.518;9.124;2023-05-10T00:59:34;13.80;99.90
31735;DHT22;18313;48.518;9.124;2023-05-10T01:02:02;13.70;99.90
31735;DHT22;18313;48.518;9.124;2023-05-10T01:04:29;13.70;99.90
31735;DHT22;18313;48.518;9.124;2023-05-10T01:06:57;13.80;99.90
31735;DHT22;18313;48.518;9.124;2023-05-10T01:09:24;13.70;99.90
31735;DHT22;18313;48.518;9.124;2023-05-10T01:11:53;13.70;99.90
31735;DHT22;18313;48.518;9.124;2023-05-10T01:14:21;13.80;99.90
31735;DHT22;18313;48.518;9.124;2023-05-10T01:16:49;13.70;99.90
31735;DHT22;18313;48.518;9.124;2023-05-10T01:19:24;13.70;99.90
31735;DHT22;18313;48.518;9.124;2023-05-10T01:35:55;13.50;99.90
31735;DHT22;18313;48.518;9.124;2023-05-10T01:43:57;13.40;99.90
31735;DHT22;18313;48.518;9.124;2023-05-10T01:46:37;13.40;99.90
31735;DHT22;18313;48.518;9.124;2023-05-10T01:49:15;13.40;99.90
31735;DHT22;18313;48.518;9.124;2023-05-10T01:51:50;13.50;99.90
31735;DHT22;18313;48.518;9.124;2023-05-10T01:54:20;13.50;99.90
31735;DHT22;18313;48.518;9.124;2023-05-10T01:56:56;13.60;99.90
31735;DHT22;18313;48.518;9.124;2023-05-10T01:59:29;13.60;99.90
31735;DHT22;18313;48.518;9.124;2023-05-10T02:01:58;13.60;99.90
31735;DHT22;18313;48.518;9.124;2023-05-10T02:04:27;13.50;99.90
31735;DHT22;18313;48.518;9.124;2023-05-10T02:06:56;13.50;99.90
31735;DHT22;18313;48.518;9.124;2023-05-10T02:09:25;13.40;99.90
31735;DHT22;18313;48.518;9.124;2023-05-10T02:11:55;13.40;99.90
31735;DHT22;18313;48.518;9.124;2023-05-10T02:14:24;13.30;99.90
31735;DHT22;18313;48.518;9.124;2023-05-10T02:16:53;13.30;99.90
31735;DHT22;18313;48.518;9.124;2023-05-10T02:19:23;13.20;99.90
31735;DHT22;18313;48.518;9.124;2023-05-10T02:21:51;13.20;99.90
31735;DHT22;18313;48.518;9.124;2023-05-10T02:24:19;13.20;99.90
31735;DHT22;18313;48.518;9.124;2023-05-10T02:26:48;13.20;99.90
31735;DHT22;18313;48.518;9.124;2023-05-10T02:29:17;13.20;99.90
31735;DHT22;18313;48.518;9.124;2023-05-10T02:31:45;13.20;99.90
31735;DHT22;18313;48.518;9.124;2023-05-10T02:34:13;13.10;99.90
31735;DHT22;18313;48.518;9.124;2023-05-10T02:36:41;13.10;99.90
31735;DHT22;18313;48.518;9.124;2023-05-10T02:39:09;13.10;99.90
31735;DHT22;18313;48.518;9.124;2023-05-10T02:41:41;13.00;99.90
31735;DHT22;18313;48.518;9.124;2023-05-10T02:44:09;13.00;99.90
31735;DHT22;18313;48.518;9.124;2023-05-10T02:46:37;13.10;99.90
31735;DHT22;18313;48.518;9.124;2023-05-10T02:49:04;13.00;99.90
31735;DHT22;18313;48.518;9.124;2023-05-10T02:51:34;13.00;99.90
31735;DHT22;18313;48.518;9.124;2023-05-10T02:54:09;13.00;99.90
31735;DHT22;18313;48.518;9.124;2023-05-10T02:56:40;13.00;99.90
31735;DHT22;18313;48.518;9.124;2023-05-10T02:59:09;13.00;99.90
31735;DHT22;18313;48.518;9.124;2023-05-10T03:01:36;13.00;99.90
31735;DHT22;18313;48.518;9.124;2023-05-10T03:04:04;13.00;99.90
31735;DHT22;18313;48.518;9.124;2023-05-10T03:06:31;13.00;99.90
31735;DHT22;18313;48.518;9.124;2023-05-10T03:08:58;13.00;99.90
31735;DHT22;18313;48.518;9.124;2023-05-10T03:12:21;13.00;99.90
31735;DHT22;18313;48.518;9.124;2023-05-10T03:17:52;13.10;99.90
31735;DHT22;18313;48.518;9.124;2023-05-10T03:20:29;13.00;99.90
31735;DHT22;18313;48.518;9.124;2023-05-10T03:25:44;12.90;99.90
31735;DHT22;18313;48.518;9.124;2023-05-10T03:28:14;13.00;99.90
31735;DHT22;18313;48.518;9.124;2023-05-10T03:30:43;12.90;99.90
31735;DHT22;18313;48.518;9.124;2023-05-10T03:33:10;12.90;99.90
31735;DHT22;18313;48.518;9.124;2023-05-10T03:35:39;13.00;99.90
31735;DHT22;18313;48.518;9.124;2023-05-10T03:38:06;12.90;99.90
31735;DHT22;18313;48.518;9.124;2023-05-10T03:40:33;12.90;99.90
31735;DHT22;18313;48.518;9.124;2023-05-10T03:43:00;13.00;99.90
31735;DHT22;18313;48.518;9.124;2023-05-10T03:45:27;12.90;99.90
31735;DHT22;18313;48.518;9.124;2023-05-10T03:47:55;12.90;99.90
31735;DHT22;18313;48.518;9.124;2023-05-10T03:50:22;13.00;99.90
31735;DHT22;18313;48.518;9.124;2023-05-10T03:52:49;13.00;99.90
31735;DHT22;18313;48.518;9.124;2023-05-10T03:55:19;13.00;99.90
31735;DHT22;18313;48.518;9.124;2023-05-10T03:57:46;13.00;99.90
31735;DHT22;18313;48.518;9.124;2023-05-10T04:00:16;13.00;99.90
31735;DHT22;18313;48.518;9.124;2023-05-10T04:02:44;13.00;99.90
31735;DHT22;18313;48.518;9.124;2023-05-10T04:05:12;13.00;99.90
31735;DHT22;18313;48.518;9.124;2023-05-10T04:07:39;13.00;99.90
31735;DHT22;18313;48.518;9.124;2023-05-10T04:10:07;12.90;99.90
31735;DHT22;18313;48.518;9.124;2023-05-10T04:12:34;12.90;99.90
31735;DHT22;18313;48.518;9.124;2023-05-10T04:15:01;12.90;99.90
31735;DHT22;18313;48.518;9.124;2023-05-10T04:17:28;12.90;99.90
31735;DHT22;18313;48.518;9.124;2023-05-10T04:19:56;13.00;99.90
31735;DHT22;18313;48.518;9.124;2023-05-10T04:22:23;12.90;99.90
31735;DHT22;18313;48.518;9.124;2023-05-10T04:24:50;12.70;99.90
31735;DHT22;18313;48.518;9.124;2023-05-10T04:27:17;12.80;99.90
31735;DHT22;18313;48.518;9.124;2023-05-10T04:29:45;12.80;99.90
31735;DHT22;18313;48.518;9.124;2023-05-10T04:32:12;12.80;99.90
31735;DHT22;18313;48.518;9.124;2023-05-10T04:34:39;12.90;99.90
31735;DHT22;18313;48.518;9.124;2023-05-10T04:37:06;13.00;99.90
31735;DHT22;18313;48.518;9.124;2023-05-10T04:39:34;13.00;99.90
31735;DHT22;18313;48.518;9.124;2023-05-10T04:42:03;13.10;99.90
31735;DHT22;18313;48.518;9.124;2023-05-10T04:44:30;13.10;99.90
31735;DHT22;18313;48.518;9.124;2023-05-10T04:46:57;13.10;99.90
31735;DHT22;18313;48.518;9.124;2023-05-10T04:49:24;13.10;99.90
31735;DHT22;18313;48.518;9.124;2023-05-10T04:51:51;13.20;99.90
31735;DHT22;18313;48.518;9.124;2023-05-10T04:54:18;13.10;99.90
31735;DHT22;18313;48.518;9.124;2023-05-10T04:56:46;13.10;99.90
31735;DHT22;18313;48.518;9.124;2023-05-10T04:59:13;13.00;99.90
31735;DHT22;18313;48.518;9.124;2023-05-10T05:01:40;13.00;99.90
31735;DHT22;18313;48.518;9.124;2023-05-10T05:04:07;13.00;99.90
31735;DHT22;18313;48.518;9.124;2023-05-10T05:06:34;13.00;99.90
31735;DHT22;18313;48.518;9.124;2023-05-10T05:09:02;13.10;99.90
31735;DHT22;18313;48.518;9.124;2023-05-10T05:11:29;13.00;99.90
31735;DHT22;18313;48.518;9.124;2023-05-10T05:13:56;13.10;99.90
31735;DHT22;18313;48.518;9.124;2023-05-10T05:16:25;13.10;99.90
31735;DHT22;18313;48.518;9.124;2023-05-10T05:18:53;13.10;99.90
31735;DHT22;18313;48.518;9.124;2023-05-10T05:21:20;13.20;99.90
31735;DHT22;18313;48.518;9.124;2023-05-10T05:23:48;13.20;99.90
31735;DHT22;18313;48.518;9.124;2023-05-10T05:26:15;13.30;99.90
31735;DHT22;18313;48.518;9.124;2023-05-10T05:28:43;13.40;99.90
31735;DHT22;18313;48.518;9.124;2023-05-10T05:31:11;13.50;99.90
31735;DHT22;18313;48.518;9.124;2023-05-10T05:33:38;13.40;99.90
31735;DHT22;18313;48.518;9.124;2023-05-10T05:36:05;13.50;99.90
31735;DHT22;18313;48.518;9.124;2023-05-10T05:38:33;13.40;99.90
31735;DHT22;18313;48.518;9.124;2023-05-10T05:41:00;13.50;99.90
31735;DHT22;18313;48.518;9.124;2023-05-10T05:43:27;13.40;99.90
31735;DHT22;18313;48.518;9.124;2023-05-10T05:45:55;13.40;99.90
31735;DHT22;18313;48.518;9.124;2023-05-10T05:48:24;13.30;99.90
31735;DHT22;18313;48.518;9.124;2023-05-10T05:50:55;13.30;99.90
31735;DHT22;18313;48.518;9.124;2023-05-10T05:53:23;13.30;99.90
31735;DHT22;18313;48.518;9.124;2023-05-10T05:55:52;13.30;99.90
31735;DHT22;18313;48.518;9.124;2023-05-10T05:58:23;13.40;99.90
31735;DHT22;18313;48.518;9.124;2023-05-10T06:00:51;13.30;99.90
31735;DHT22;18313;48.518;9.124;2023-05-10T06:03:21;13.30;99.90
31735;DHT22;18313;48.518;9.124;2023-05-10T06:05:48;13.30;99.90
31735;DHT22;18313;48.518;9.124;2023-05-10T06:08:15;13.40;99.90
31735;DHT22;18313;48.518;9.124;2023-05-10T06:10:43;13.40;99.90
31735;DHT22;18313;48.518;9.124;2023-05-10T06:13:11;13.50;99.90
31735;DHT22;18313;48.518;9.124;2023-05-10T06:15:38;13.50;99.90
31735;DHT22;18313;48.518;9.124;2023-05-10T06:18:05;13.50;99.90
31735;DHT22;18313;48.518;9.124;2023-05-10T06:20:32;13.40;99.90
31735;DHT22;18313;48.518;9.124;2023-05-10T06:23:00;13.50;99.90
31735;DHT22;18313;48.518;9.124;2023-05-10T06:25:27;13.50;99.90
31735;DHT22;18313;48.518;9.124;2023-05-10T06:27:54;13.50;99.90
31735;DHT22;18313;48.518;9.124;2023-05-10T06:30:25;13.60;99.90
31735;DHT22;18313;48.518;9.124;2023-05-10T06:32:56;13.60;99.90
31735;DHT22;18313;48.518;9.124;2023-05-10T06:35:23;13.70;99.90
31735;DHT22;18313;48.518;9.124;2023-05-10T06:37:51;13.70;99.90
31735;DHT22;18313;48.518;9.124;2023-05-10T06:40:18;13.80;99.90
31735;DHT22;18313;48.518;9.124;2023-05-10T06:42:46;13.80;99.90
31735;DHT22;18313;48.518;9.124;2023-05-10T06:45:14;13.90;99.90
31735;DHT22;18313;48.518;9.124;2023-05-10T06:47:42;13.90;99.90
31735;DHT22;18313;48.518;9.124;2023-05-10T06:50:10;13.90;99.90
31735;DHT22;18313;48.518;9.124;2023-05-10T06:52:40;13.90;99.90
31735;DHT22;18313;48.518;9.124;2023-05-10T06:55:07;13.90;99.90
31735;DHT22;18313;48.518;9.124;2023-05-10T06:57:35;14.00;99.90
31735;DHT22;18313;48.518;9.124;2023-05-10T07:00:03;14.10;99.90
31735;DHT22;18313;48.518;9.124;2023-05-10T07:02:33;14.20;99.90
31735;DHT22;18313;48.518;9.124;2023-05-10T07:05:01;14.30;99.90
31735;DHT22;18313;48.518;9.124;2023-05-10T07:07:29;14.40;99.90
31735;DHT22;18313;48.518;9.124;2023-05-10T07:09:56;14.50;99.90
31735;DHT22;18313;48.518;9.124;2023-05-10T07:12:24;14.50;99.90
31735;DHT22;18313;48.518;9.124;2023-05-10T07:14:51;14.50;99.90
31735;DHT22;18313;48.518;9.124;2023-05-10T07:17:19;14.40;99.90
31735;DHT22;18313;48.518;9.124;2023-05-10T07:19:46;14.30;99.90
31735;DHT22;18313;48.518;9.124;2023-05-10T07:22:13;14.20;99.90
31735;DHT22;18313;48.518;9.124;2023-05-10T07:24:40;14.20;99.90
31735;DHT22;18313;48.518;9.124;2023-05-10T07:27:07;14.20;99.90
31735;DHT22;18313;48.518;9.124;2023-05-10T07:29:35;14.10;99.90
31735;DHT22;18313;48.518;9.124;2023-05-10T07:32:02;14.10;99.90
31735;DHT22;18313;48.518;9.124;2023-05-10T07:34:30;14.10;99.90
31735;DHT22;18313;48.518;9.124;2023-05-10T07:36:58;14.20;99.90
31735;DHT22;18313;48.518;9.124;2023-05-10T07:39:26;14.20;99.90
31735;DHT22;18313;48.518;9.124;2023-05-10T07:41:54;14.30;99.90
31735;DHT22;18313;48.518;9.124;2023-05-10T07:44:22;14.40;99.90
31735;DHT22;18313;48.518;9.124;2023-05-10T07:46:49;14.40;99.90
31735;DHT22;18313;48.518;9.124;2023-05-10T07:49:17;14.40;99.90
31735;DHT22;18313;48.518;9.124;2023-05-10T07:51:44;14.40;99.90
31735;DHT22;18313;48.518;9.124;2023-05-10T07:54:11;14.60;99.90
31735;DHT22;18313;48.518;9.124;2023-05-10T07:56:39;14.50;99.90
31735;DHT22;18313;48.518;9.124;2023-05-10T07:59:17;14.60;99.90
31735;DHT22;18313;48.518;9.124;2023-05-10T08:01:45;14.60;99.90
31735;DHT22;18313;48.518;9.124;2023-05-10T08:04:13;14.70;99.90
31735;DHT22;18313;48.518;9.124;2023-05-10T08:06:40;14.70;99.90
31735;DHT22;18313;48.518;9.124;2023-05-10T08:09:08;14.70;99.90
31735;DHT22;18313;48.518;9.124;2023-05-10T08:11:35;14.70;99.90
31735;DHT22;18313;48.518;9.124;2023-05-10T08:14:03;14.80;99.90
31735;DHT22;18313;48.518;9.124;2023-05-10T08:16:30;15.00;99.90
31735;DHT22;18313;48.518;9.124;2023-05-10T08:18:57;15.10;99.90
31735;DHT22;18313;48.518;9.124;2023-05-10T08:21:24;15.20;99.90
31735;DHT22;18313;48.518;9.124;2023-05-10T08:23:52;15.20;99.90
31735;DHT22;18313;48.518;9.124;2023-05-10T08:26:20;15.20;99.90
31735;DHT22;18313;48.518;9.124;2023-05-10T08:28:48;15.20;99.90
31735;DHT22;18313;48.518;9.124;2023-05-10T08:31:15;15.30;99.90
31735;DHT22;18313;48.518;9.124;2023-05-10T08:33:42;15.30;99.90
31735;DHT22;18313;48.518;9.124;2023-05-10T08:36:11;15.40;99.90
31735;DHT22;18313;48.518;9.124;2023-05-10T08:38:41;15.50;99.90
31735;DHT22;18313;48.518;9.124;2023-05-10T08:41:08;15.60;99.90
31735;DHT22;18313;48.518;9.124;2023-05-10T08:43:36;15.70;99.90
31735;DHT22;18313;48.518;9.124;2023-05-10T08:46:05;15.60;99.90
31735;DHT22;18313;48.518;9.124;2023-05-10T08:48:34;15.60;99.90
31735;DHT22;18313;48.518;9.124;2023-05-10T08:51:02;15.80;99.90
31735;DHT22;18313;48.518;9.124;2023-05-10T08:53:32;15.90;99.90
31735;DHT22;18313;48.518;9.124;2023-05-10T08:56:01;16.10;99.90
31735;DHT22;18313;48.518;9.124;2023-05-10T08:58:29;16.30;99.90
31735;DHT22;18313;48.518;9.124;2023-05-10T09:00:57;16.40;99.90
31735;DHT22;18313;48.518;9.124;2023-05-10T09:03:24;16.50;99.90
31735;DHT22;18313;48.518;9.124;2023-05-10T09:05:52;16.60;99.90
31735;DHT22;18313;48.518;9.124;2023-05-10T09:08:20;16.60;99.90
31735;DHT22;18313;48.518;9.124;2023-05-10T09:10:48;16.50;99.90
31735;DHT22;18313;48.518;9.124;2023-05-10T09:13:15;16.60;99.90
31735;DHT22;18313;48.518;9.124;2023-05-10T09:15:44;16.60;99.90
31735;DHT22;18313;48.518;9.124;2023-05-10T09:18:12;16.50;99.90
31735;DHT22;18313;48.518;9.124;2023-05-10T09:20:40;16.50;99.90
31735;DHT22;18313;48.518;9.124;2023-05-10T09:23:07;16.50;99.90
31735;DHT22;18313;48.518;9.124;2023-05-10T09:25:34;16.40;99.90
31735;DHT22;18313;48.518;9.124;2023-05-10T09:28:02;16.50;99.90
31735;DHT22;18313;48.518;9.124;2023-05-10T09:30:30;16.70;99.90
31735;DHT22;18313;48.518;9.124;2023-05-10T09:32:59;16.80;99.90
31735;DHT22;18313;48.518;9.124;2023-05-10T09:35:28;16.90;99.90
31735;DHT22;18313;48.518;9.124;2023-05-10T09:37:59;17.00;99.90
31735;DHT22;18313;48.518;9.124;2023-05-10T09:40:28;17.30;99.90
31735;DHT22;18313;48.518;9.124;2023-05-10T09:45:27;17.50;99.90
31735;DHT22;18313;48.518;9.124;2023-05-10T09:47:55;17.70;99.90
31735;DHT22;18313;48.518;9.124;2023-05-10T09:50:23;17.90;99.90
31735;DHT22;18313;48.518;9.124;2023-05-10T09:52:55;18.00;99.90
31735;DHT22;18313;48.518;9.124;2023-05-10T09:58:06;18.20;99.90
31735;DHT22;18313;48.518;9.124;2023-05-10T10:00:39;18.30;99.90
31735;DHT22;18313;48.518;9.124;2023-05-10T10:03:13;18.20;99.90
31735;DHT22;18313;48.518;9.124;2023-05-10T10:05:42;18.20;99.90
31735;DHT22;18313;48.518;9.124;2023-05-10T10:08:10;18.00;99.90
31735;DHT22;18313;48.518;9.124;2023-05-10T10:10:39;17.60;99.90
31735;DHT22;18313;48.518;9.124;2023-05-10T10:13:12;17.10;99.90
31735;DHT22;18313;48.518;9.124;2023-05-10T10:15:39;16.40;99.90
31735;DHT22;18313;48.518;9.124;2023-05-10T10:18:07;16.00;99.90
31735;DHT22;18313;48.518;9.124;2023-05-10T10:20:38;15.80;99.90
31735;DHT22;18313;48.518;9.124;2023-05-10T10:23:05;15.80;99.90
31735;DHT22;18313;48.518;9.124;2023-05-10T10:25:32;15.90;99.90
31735;DHT22;18313;48.518;9.124;2023-05-10T10:28:19;16.00;99.90
31735;DHT22;18313;48.518;9.124;2023-05-10T10:30:52;16.10;99.90
31735;DHT22;18313;48.518;9.124;2023-05-10T10:36:15;16.20;99.90
31735;DHT22;18313;48.518;9.124;2023-05-10T10:41:35;16.30;99.90
31735;DHT22;18313;48.518;9.124;2023-05-10T10:47:03;16.20;99.90
31735;DHT22;18313;48.518;9.124;2023-05-10T10:52:22;16.90;99.90
31735;DHT22;18313;48.518;9.124;2023-05-10T10:55:03;17.10;99.90
31735;DHT22;18313;48.518;9.124;2023-05-10T11:00:26;17.60;99.90
31735;DHT22;18313;48.518;9.124;2023-05-10T11:03:06;17.90;99.90
31735;DHT22;18313;48.518;9.124;2023-05-10T11:05:42;17.90;99.90
31735;DHT22;18313;48.518;9.124;2023-05-10T11:08:30;17.90;99.90
31735;DHT22;18313;48.518;9.124;2023-05-10T11:13:28;17.90;99.90
31735;DHT22;18313;48.518;9.124;2023-05-10T11:15:56;17.60;99.90
31735;DHT22;18313;48.518;9.124;2023-05-10T11:18:28;17.50;99.90
31735;DHT22;18313;48.518;9.124;2023-05-10T11:21:00;17.40;99.90
31735;DHT22;18313;48.518;9.124;2023-05-10T11:26:10;16.90;99.90
31735;DHT22;18313;48.518;9.124;2023-05-10T11:28:42;16.60;99.90
31735;DHT22;18313;48.518;9.124;2023-05-10T11:31:10;16.50;99.90
31735;DHT22;18313;48.518;9.124;2023-05-10T11:36:18;16.40;99.90
31735;DHT22;18313;48.518;9.124;2023-05-10T11:38:46;16.30;99.90
31735;DHT22;18313;48.518;9.124;2023-05-10T11:41:14;16.30;99.90
31735;DHT22;18313;48.518;9.124;2023-05-10T11:43:42;16.30;99.90
31735;DHT22;18313;48.518;9.124;2023-05-10T11:46:11;16.20;99.90
31735;DHT22;18313;48.518;9.124;2023-05-10T11:48:39;16.00;99.90
31735;DHT22;18313;48.518;9.124;2023-05-10T11:51:07;16.00;99.90
31735;DHT22;18313;48.518;9.124;2023-05-10T11:53:35;16.10;99.90
31735;DHT22;18313;48.518;9.124;2023-05-10T11:56:03;16.00;99.90
31735;DHT22;18313;48.518;9.124;2023-05-10T11:58:32;16.00;99.90
31735;DHT22;18313;48.518;9.124;2023-05-10T12:00:59;15.90;99.90
31735;DHT22;18313;48.518;9.124;2023-05-10T12:03:27;15.80;99.90
31735;DHT22;18313;48.518;9.124;2023-05-10T12:05:56;15.80;99.90
31735;DHT22;18313;48.518;9.124;2023-05-10T12:08:26;15.80;99.90
31735;DHT22;18313;48.518;9.124;2023-05-10T12:11:03;16.00;99.90
31735;DHT22;18313;48.518;9.124;2023-05-10T12:13:30;16.10;99.90
31735;DHT22;18313;48.518;9.124;2023-05-10T12:15:58;16.30;99.90
31735;DHT22;18313;48.518;9.124;2023-05-10T12:18:25;16.40;99.90
31735;DHT22;18313;48.518;9.124;2023-05-10T12:20:53;16.60;99.90
31735;DHT22;18313;48.518;9.124;2023-05-10T12:23:21;16.80;99.90
31735;DHT22;18313;48.518;9.124;2023-05-10T12:25:47;16.90;99.90
31735;DHT22;18313;48.518;9.124;2023-05-10T12:28:15;17.00;99.90
31735;DHT22;18313;48.518;9.124;2023-05-10T12:30:45;17.00;99.90
31735;DHT22;18313;48.518;9.124;2023-05-10T12:33:13;17.10;99.90
31735;DHT22;18313;48.518;9.124;2023-05-10T12:35:52;17.30;99.90
31735;DHT22;18313;48.518;9.124;2023-05-10T12:38:29;17.30;99.90
31735;DHT22;18313;48.518;9.124;2023-05-10T12:41:02;17.20;99.90
31735;DHT22;18313;48.518;9.124;2023-05-10T12:43:29;17.10;99.90
31735;DHT22;18313;48.518;9.124;2023-05-10T12:45:57;17.00;99.90
31735;DHT22;18313;48.518;9.124;2023-05-10T12:48:24;17.00;99.90
31735;DHT22;18313;48.518;9.124;2023-05-10T12:50:51;17.10;99.90
31735;DHT22;18313;48.518;9.124;2023-05-10T12:53:18;17.20;99.90
31735;DHT22;18313;48.518;9.124;2023-05-10T12:55:45;17.30;99.90
31735;DHT22;18313;48.518;9.124;2023-05-10T12:58:12;17.40;99.90
31735;DHT22;18313;48.518;9.124;2023-05-10T13:00:59;17.50;99.90
31735;DHT22;18313;48.518;9.124;2023-05-10T13:03:27;17.40;99.90
31735;DHT22;18313;48.518;9.124;2023-05-10T13:05:54;17.30;99.90
31735;DHT22;18313;48.518;9.124;2023-05-10T13:08:21;17.50;99.90
31735;DHT22;18313;48.518;9.124;2023-05-10T13:10:48;17.80;99.90
31735;DHT22;18313;48.518;9.124;2023-05-10T13:13:15;18.00;99.90
31735;DHT22;18313;48.518;9.124;2023-05-10T13:15:42;17.90;99.90
31735;DHT22;18313;48.518;9.124;2023-05-10T13:18:09;17.70;99.90
31735;DHT22;18313;48.518;9.124;2023-05-10T13:20:37;17.70;99.90
31735;DHT22;18313;48.518;9.124;2023-05-10T13:23:04;17.90;99.90
31735;DHT22;18313;48.518;9.124;2023-05-10T13:25:31;18.20;99.90
31735;DHT22;18313;48.518;9.124;2023-05-10T13:27:58;18.20;99.90
31735;DHT22;18313;48.518;9.124;2023-05-10T13:30:25;18.30;99.90
31735;DHT22;18313;48.518;9.124;2023-05-10T13:32:52;18.30;99.90
31735;DHT22;18313;48.518;9.124;2023-05-10T13:35:20;18.20;99.90
31735;DHT22;18313;48.518;9.124;2023-05-10T13:37:47;18.20;99.90
31735;DHT22;18313;48.518;9.124;2023-05-10T13:40:14;18.50;99.90
31735;DHT22;18313;48.518;9.124;2023-05-10T13:42:42;18.40;99.90
31735;DHT22;18313;48.518;9.124;2023-05-10T13:45:10;18.60;99.90
31735;DHT22;18313;48.518;9.124;2023-05-10T13:47:39;18.50;99.90
31735;DHT22;18313;48.518;9.124;2023-05-10T13:50:06;18.50;99.90
31735;DHT22;18313;48.518;9.124;2023-05-10T13:52:33;18.20;99.90
31735;DHT22;18313;48.518;9.124;2023-05-10T13:55:01;18.30;99.90
31735;DHT22;18313;48.518;9.124;2023-05-10T13:57:28;18.40;99.90
31735;DHT22;18313;48.518;9.124;2023-05-10T13:59:57;18.40;99.90
31735;DHT22;18313;48.518;9.124;2023-05-10T14:02:25;18.30;99.90
31735;DHT22;18313;48.518;9.124;2023-05-10T14:04:54;18.10;99.90
31735;DHT22;18313;48.518;9.124;2023-05-10T14:07:21;18.20;99.90
31735;DHT22;18313;48.518;9.124;2023-05-10T14:09:48;18.30;99.90
31735;DHT22;18313;48.518;9.124;2023-05-10T14:12:15;18.50;99.90
31735;DHT22;18313;48.518;9.124;2023-05-10T14:14:43;18.70;99.90
31735;DHT22;18313;48.518;9.124;2023-05-10T14:17:10;18.70;99.90
31735;DHT22;18313;48.518;9.124;2023-05-10T14:19:38;18.70;99.90
31735;DHT22;18313;48.518;9.124;2023-05-10T14:22:06;18.70;99.90
31735;DHT22;18313;48.518;9.124;2023-05-10T14:24:33;18.60;99.90
31735;DHT22;18313;48.518;9.124;2023-05-10T14:27:00;18.50;99.90
31735;DHT22;18313;48.518;9.124;2023-05-10T14:29:27;18.50;99.90
31735;DHT22;18313;48.518;9.124;2023-05-10T14:31:54;18.70;99.90
31735;DHT22;18313;48.518;9.124;2023-05-10T14:34:21;18.70;99.90
31735;DHT22;18313;48.518;9.124;2023-05-10T14:36:49;18.60;99.90
31735;DHT22;18313;48.518;9.124;2023-05-10T14:39:16;18.50;99.90
31735;DHT22;18313;48.518;9.124;2023-05-10T14:41:43;18.40;99.90
31735;DHT22;18313;48.518;9.124;2023-05-10T14:44:11;18.60;99.90
31735;DHT22;18313;48.518;9.124;2023-05-10T14:46:38;18.70;99.90
31735;DHT22;18313;48.518;9.124;2023-05-10T14:49:06;18.70;99.90
31735;DHT22;18313;48.518;9.124;2023-05-10T14:51:33;18.80;99.90
31735;DHT22;18313;48.518;9.124;2023-05-10T14:54:00;19.00;99.90
31735;DHT22;18313;48.518;9.124;2023-05-10T14:56:27;19.20;99.90
31735;DHT22;18313;48.518;9.124;2023-05-10T14:58:55;19.20;99.90
31735;DHT22;18313;48.518;9.124;2023-05-10T15:01:22;19.30;99.90
31735;DHT22;18313;48.518;9.124;2023-05-10T15:03:50;19.50;99.90
31735;DHT22;18313;48.518;9.124;2023-05-10T15:06:23;19.30;99.90
31735;DHT22;18313;48.518;9.124;2023-05-10T15:08:51;19.30;99.90
31735;DHT22;18313;48.518;9.124;2023-05-10T15:11:18;19.30;99.90
31735;DHT22;18313;48.518;9.124;2023-05-10T15:13:45;19.40;99.90
31735;DHT22;18313;48.518;9.124;2023-05-10T15:16:12;19.40;99.40
31735;DHT22;18313;48.518;9.124;2023-05-10T15:18:39;19.30;99.90
31735;DHT22;18313;48.518;9.124;2023-05-10T15:21:06;19.20;99.90
31735;DHT22;18313;48.518;9.124;2023-05-10T15:23:33;19.30;99.90
31735;DHT22;18313;48.518;9.124;2023-05-10T15:26:00;19.20;99.20
31735;DHT22;18313;48.518;9.124;2023-05-10T15:28:27;19.00;99.90
31735;DHT22;18313;48.518;9.124;2023-05-10T15:30:55;19.10;99.90
31735;DHT22;18313;48.518;9.124;2023-05-10T15:33:22;19.20;99.90
31735;DHT22;18313;48.518;9.124;2023-05-10T15:35:50;19.30;99.90
31735;DHT22;18313;48.518;9.124;2023-05-10T15:38:17;19.20;99.90
31735;DHT22;18313;48.518;9.124;2023-05-10T15:40:44;19.30;99.80
31735;DHT22;18313;48.518;9.124;2023-05-10T15:43:11;18.80;99.10
31735;DHT22;18313;48.518;9.124;2023-05-10T15:45:38;18.70;99.90
31735;DHT22;18313;48.518;9.124;2023-05-10T15:48:05;18.60;99.90
31735;DHT22;18313;48.518;9.124;2023-05-10T15:50:33;18.50;99.90
31735;DHT22;18313;48.518;9.124;2023-05-10T15:53:00;18.40;99.90
31735;DHT22;18313;48.518;9.124;2023-05-10T15:55:27;18.50;99.90
31735;DHT22;18313;48.518;9.124;2023-05-10T15:57:54;18.60;99.90
31735;DHT22;18313;48.518;9.124;2023-05-10T16:00:21;18.70;99.90
31735;DHT22;18313;48.518;9.124;2023-05-10T16:02:51;18.60;99.90
31735;DHT22;18313;48.518;9.124;2023-05-10T16:05:19;18.60;99.90
31735;DHT22;18313;48.518;9.124;2023-05-10T16:07:46;18.40;99.90
31735;DHT22;18313;48.518;9.124;2023-05-10T16:10:13;18.40;99.90
31735;DHT22;18313;48.518;9.124;2023-05-10T16:12:40;18.50;99.90
31735;DHT22;18313;48.518;9.124;2023-05-10T16:15:08;18.50;99.90
31735;DHT22;18313;48.518;9.124;2023-05-10T16:17:35;18.30;99.90
31735;DHT22;18313;48.518;9.124;2023-05-10T16:20:04;18.00;99.90
31735;DHT22;18313;48.518;9.124;2023-05-10T16:22:32;17.80;99.90
31735;DHT22;18313;48.518;9.124;2023-05-10T16:24:59;17.40;99.90
31735;DHT22;18313;48.518;9.124;2023-05-10T16:27:26;17.10;99.90
31735;DHT22;18313;48.518;9.124;2023-05-10T16:29:56;16.80;99.90